createdAt,value
2016-10-26T00:00:09.430Z,0
2016-10-26T00:01:20.439Z,0
2016-10-26T00:02:31.759Z,0
2016-10-26T00:03:43.600Z,0
2016-10-26T00:04:56.234Z,0
2016-10-26T00:06:08.081Z,0
2016-10-26T00:07:21.292Z,0
2016-10-26T00:08:32.833Z,0
2016-10-26T00:09:43.928Z,0
2016-10-26T00:10:56.051Z,0
2016-10-26T00:12:07.480Z,0
2016-10-26T00:13:19.181Z,0
2016-10-26T00:14:30.889Z,0
2016-10-26T00:15:42.698Z,0
2016-10-26T00:16:53.883Z,0
2016-10-26T00:18:05.776Z,0
2016-10-26T00:19:16.388Z,0
2016-10-26T00:20:28.989Z,0
2016-10-26T00:21:41.068Z,0
2016-10-26T00:22:51.934Z,0
2016-10-26T00:24:04.988Z,0
2016-10-26T00:25:16.725Z,0
2016-10-26T00:26:27.904Z,0
2016-10-26T00:27:39.540Z,0
2016-10-26T00:28:52.277Z,0
2016-10-26T00:30:03.140Z,0
2016-10-26T00:31:15.015Z,0
2016-10-26T00:32:26.140Z,0
2016-10-26T00:33:38.892Z,0
2016-10-26T00:34:50.842Z,0
2016-10-26T00:36:02.937Z,0
2016-10-26T00:37:14.568Z,0
2016-10-26T00:38:26.714Z,0
2016-10-26T00:39:38.626Z,0
2016-10-26T00:40:50.123Z,0
2016-10-26T00:42:02.085Z,0
2016-10-26T00:43:13.955Z,0
2016-10-26T00:44:26.831Z,0
2016-10-26T00:45:38.413Z,0
2016-10-26T00:46:50.872Z,0
2016-10-26T00:48:01.556Z,0
2016-10-26T00:49:12.929Z,0
2016-10-26T00:50:23.099Z,0
2016-10-26T00:51:35.037Z,0
2016-10-26T00:52:47.258Z,0
2016-10-26T00:53:59.293Z,0
2016-10-26T00:55:10.347Z,0
2016-10-26T00:56:22.526Z,0
2016-10-26T00:57:34.834Z,0
2016-10-26T00:58:46.530Z,0
2016-10-26T00:59:58.044Z,0
2016-10-26T01:01:11.322Z,0
2016-10-26T01:02:22.348Z,0
2016-10-26T01:03:34.121Z,0
2016-10-26T01:04:46.736Z,0
2016-10-26T01:05:58.873Z,0
2016-10-26T01:07:11.566Z,0
2016-10-26T01:08:22.990Z,0
2016-10-26T01:09:34.563Z,0
2016-10-26T01:10:45.703Z,0
2016-10-26T01:11:57.775Z,0
2016-10-26T01:13:10.011Z,0
2016-10-26T01:14:22.121Z,0
2016-10-26T01:15:33.697Z,0
2016-10-26T01:16:44.309Z,0
2016-10-26T01:17:55.549Z,0
2016-10-26T01:19:07.879Z,0
2016-10-26T01:20:18.975Z,0
2016-10-26T01:21:29.548Z,0
2016-10-26T01:22:41.405Z,0
2016-10-26T01:23:53.420Z,0
2016-10-26T01:25:05.178Z,0
2016-10-26T01:26:18.390Z,0
2016-10-26T01:27:30.145Z,0
2016-10-26T01:28:40.850Z,0
2016-10-26T01:29:52.563Z,0
2016-10-26T01:31:04.390Z,0
2016-10-26T01:32:17.635Z,0
2016-10-26T01:33:28.647Z,0
2016-10-26T01:34:39.962Z,0
2016-10-26T01:35:52.189Z,0
2016-10-26T01:37:03.987Z,0
2016-10-26T01:38:16.151Z,0
2016-10-26T01:39:28.205Z,0
2016-10-26T01:40:41.011Z,0
2016-10-26T01:41:53.105Z,0
2016-10-26T01:43:04.793Z,0
2016-10-26T01:44:17.037Z,0
2016-10-26T01:45:28.625Z,0
2016-10-26T01:46:39.213Z,0
2016-10-26T01:47:50.711Z,0
2016-10-26T01:49:02.960Z,0
2016-10-26T01:50:15.190Z,0
2016-10-26T01:51:25.643Z,0
2016-10-26T01:52:38.096Z,0
2016-10-26T01:53:50.462Z,0
2016-10-26T01:55:02.655Z,0
2016-10-26T01:56:14.702Z,0
2016-10-26T01:57:27.049Z,0
2016-10-26T01:58:39.078Z,0
2016-10-26T01:59:50.655Z,0
2016-10-26T02:01:02.323Z,0
2016-10-26T02:02:14.362Z,0
2016-10-26T02:03:26.992Z,0
2016-10-26T02:04:38.490Z,0
2016-10-26T02:05:50.449Z,0
2016-10-26T02:07:03.547Z,0
2016-10-26T02:08:14.655Z,0
2016-10-26T02:09:25.680Z,0
2016-10-26T02:10:36.611Z,0
2016-10-26T02:11:49.478Z,0
2016-10-26T02:13:00.959Z,0
2016-10-26T02:14:11.170Z,0
2016-10-26T02:15:22.362Z,0
2016-10-26T02:16:34.534Z,0
2016-10-26T02:17:45.825Z,0
2016-10-26T02:18:58.266Z,0
2016-10-26T02:20:11.141Z,0
2016-10-26T02:21:21.983Z,0
2016-10-26T02:22:33.594Z,0
2016-10-26T02:23:45.729Z,0
2016-10-26T02:24:58.383Z,0
2016-10-26T02:26:10.580Z,0
2016-10-26T02:27:21.941Z,0
2016-10-26T02:28:32.821Z,0
2016-10-26T02:29:44.938Z,0
2016-10-26T02:30:56.560Z,0
2016-10-26T02:32:09.168Z,0
2016-10-26T02:33:21.108Z,0
2016-10-26T02:34:33.317Z,0
2016-10-26T02:35:45.362Z,0
2016-10-26T02:36:57.852Z,0
2016-10-26T02:38:09.183Z,0
2016-10-26T02:39:20.956Z,0
2016-10-26T02:40:32.554Z,0
2016-10-26T02:41:43.472Z,0
2016-10-26T02:42:55.235Z,0
2016-10-26T02:44:07.199Z,0
2016-10-26T02:45:18.861Z,0
2016-10-26T02:46:30.285Z,0
2016-10-26T02:47:42.163Z,0
2016-10-26T02:48:53.066Z,0
2016-10-26T02:50:05.282Z,0
2016-10-26T02:51:17.199Z,0
2016-10-26T02:52:28.700Z,0
2016-10-26T02:53:41.059Z,0
2016-10-26T02:54:52.466Z,0
2016-10-26T02:56:03.357Z,0
2016-10-26T02:57:15.721Z,0
2016-10-26T02:58:28.267Z,0
2016-10-26T02:59:40.548Z,0
2016-10-26T03:00:51.912Z,0
2016-10-26T03:02:04.085Z,0
2016-10-26T03:03:15.673Z,0
2016-10-26T03:04:27.930Z,0
2016-10-26T03:05:39.542Z,0
2016-10-26T03:06:50.775Z,0
2016-10-26T03:08:02.957Z,0
2016-10-26T03:09:14.712Z,0
2016-10-26T03:10:25.053Z,0
2016-10-26T03:11:37.175Z,0
2016-10-26T03:12:50.441Z,0
2016-10-26T03:14:02.476Z,0
2016-10-26T03:15:15.231Z,0
2016-10-26T03:16:26.778Z,0
2016-10-26T03:17:38.778Z,0
2016-10-26T03:18:50.900Z,0
2016-10-26T03:20:03.584Z,0
2016-10-26T03:21:15.820Z,0
2016-10-26T03:22:26.450Z,0
2016-10-26T03:23:37.921Z,0
2016-10-26T03:24:49.560Z,0
2016-10-26T03:26:01.945Z,0
2016-10-26T03:27:14.705Z,0
2016-10-26T03:28:26.201Z,0
2016-10-26T03:29:37.849Z,0
2016-10-26T03:30:50.059Z,0
2016-10-26T03:32:01.409Z,0
2016-10-26T03:33:12.897Z,0
2016-10-26T03:34:24.965Z,0
2016-10-26T03:35:37.013Z,0
2016-10-26T03:36:48.285Z,0
2016-10-26T03:37:59.754Z,0
2016-10-26T03:39:11.259Z,0
2016-10-26T03:40:22.771Z,0
2016-10-26T03:41:35.533Z,0
2016-10-26T03:42:47.078Z,0
2016-10-26T03:43:59.717Z,0
2016-10-26T03:45:10.956Z,0
2016-10-26T03:46:22.875Z,0
2016-10-26T03:47:34.393Z,0
2016-10-26T03:48:46.093Z,0
2016-10-26T03:49:57.351Z,0
2016-10-26T03:51:08.837Z,0
2016-10-26T03:52:20.243Z,0
2016-10-26T03:53:32.538Z,0
2016-10-26T03:54:44.019Z,0
2016-10-26T03:55:55.440Z,0
2016-10-26T03:57:08.058Z,0
2016-10-26T03:58:20.962Z,0
2016-10-26T03:59:33.641Z,0
2016-10-26T04:00:46.419Z,0
2016-10-26T04:01:58.717Z,0
2016-10-26T04:03:11.374Z,0
2016-10-26T04:04:22.771Z,0
2016-10-26T04:05:34.049Z,0
2016-10-26T04:06:46.144Z,0
2016-10-26T04:07:57.521Z,0
2016-10-26T04:09:09.066Z,0
2016-10-26T04:10:20.890Z,0
2016-10-26T04:11:34.111Z,0
2016-10-26T04:12:45.867Z,0
2016-10-26T04:13:57.079Z,0
2016-10-26T04:15:09.010Z,0
2016-10-26T04:16:20.999Z,0
2016-10-26T04:17:32.121Z,0
2016-10-26T04:18:44.842Z,0
2016-10-26T04:19:56.297Z,0
2016-10-26T04:21:07.783Z,0
2016-10-26T04:22:19.323Z,0
2016-10-26T04:23:31.499Z,0
2016-10-26T04:24:43.747Z,0
2016-10-26T04:25:55.679Z,0
2016-10-26T04:27:08.336Z,0
2016-10-26T04:28:20.390Z,0
2016-10-26T04:29:31.948Z,0
2016-10-26T04:30:44.097Z,0
2016-10-26T04:31:55.742Z,0
2016-10-26T04:33:08.097Z,0
2016-10-26T04:34:20.420Z,0
2016-10-26T04:35:32.480Z,0
2016-10-26T04:36:44.297Z,0
2016-10-26T04:37:57.112Z,0
2016-10-26T04:39:09.835Z,0
2016-10-26T04:40:21.267Z,0
2016-10-26T04:41:32.667Z,0
2016-10-26T04:42:45.241Z,0
2016-10-26T04:43:56.531Z,0
2016-10-26T04:45:07.948Z,0
2016-10-26T04:46:19.082Z,0
2016-10-26T04:47:31.421Z,0
2016-10-26T04:48:43.981Z,0
2016-10-26T04:49:56.820Z,0
2016-10-26T04:51:09.448Z,0
2016-10-26T04:52:22.233Z,0
2016-10-26T04:53:33.779Z,0
2016-10-26T04:54:45.585Z,0
2016-10-26T04:55:58.761Z,0
2016-10-26T04:57:10.098Z,0
2016-10-26T04:58:20.421Z,0
2016-10-26T04:59:33.060Z,0
2016-10-26T05:00:45.725Z,0
2016-10-26T05:01:58.207Z,0
2016-10-26T05:03:09.783Z,0
2016-10-26T05:04:21.164Z,0
2016-10-26T05:05:33.415Z,0
2016-10-26T05:06:46.197Z,0
2016-10-26T05:07:58.949Z,0
2016-10-26T05:09:11.776Z,0
2016-10-26T05:10:22.677Z,0
2016-10-26T05:11:34.052Z,0
2016-10-26T05:12:46.677Z,0
2016-10-26T05:13:57.762Z,0
2016-10-26T05:15:10.275Z,0
2016-10-26T05:16:22.977Z,0
2016-10-26T05:17:35.284Z,0
2016-10-26T05:18:47.908Z,0
2016-10-26T05:19:59.058Z,0
2016-10-26T05:21:11.296Z,0
2016-10-26T05:22:23.332Z,0
2016-10-26T05:23:35.141Z,0
2016-10-26T05:24:47.126Z,0
2016-10-26T05:25:59.431Z,0
2016-10-26T05:27:11.225Z,0
2016-10-26T05:28:23.774Z,0
2016-10-26T05:29:34.565Z,0
2016-10-26T05:30:47.198Z,0
2016-10-26T05:31:58.953Z,0
2016-10-26T05:33:11.028Z,0
2016-10-26T05:34:23.819Z,0
2016-10-26T05:35:35.548Z,0
2016-10-26T05:36:47.315Z,0
2016-10-26T05:37:58.444Z,0
2016-10-26T05:39:10.328Z,0
2016-10-26T05:40:21.756Z,0
2016-10-26T05:41:34.192Z,0
2016-10-26T05:42:44.893Z,0
2016-10-26T05:43:57.114Z,0
2016-10-26T05:45:08.187Z,0
2016-10-26T05:46:19.559Z,0
2016-10-26T05:47:31.196Z,0
2016-10-26T05:48:43.139Z,0
2016-10-26T05:49:54.653Z,0
2016-10-26T05:51:06.339Z,0
2016-10-26T05:52:18.273Z,0
2016-10-26T05:53:29.339Z,0
2016-10-26T05:54:42.026Z,0
2016-10-26T05:55:53.578Z,0
2016-10-26T05:57:06.023Z,0
2016-10-26T05:58:18.751Z,0
2016-10-26T05:59:30.316Z,0
2016-10-26T06:00:41.859Z,0
2016-10-26T06:01:52.794Z,0
2016-10-26T06:03:04.626Z,0
2016-10-26T06:04:16.196Z,0
2016-10-26T06:05:27.927Z,0
2016-10-26T06:06:39.694Z,0
2016-10-26T06:07:51.862Z,0
2016-10-26T06:09:04.012Z,0
2016-10-26T06:10:15.548Z,0
2016-10-26T06:11:27.313Z,0
2016-10-26T06:12:38.313Z,0
2016-10-26T06:13:49.456Z,0
2016-10-26T06:15:01.194Z,0
2016-10-26T06:16:13.666Z,0
2016-10-26T06:17:26.477Z,0
2016-10-26T06:18:39.221Z,0
2016-10-26T06:19:51.418Z,0
2016-10-26T06:21:03.173Z,0
2016-10-26T06:22:14.292Z,0
2016-10-26T06:23:26.834Z,0
2016-10-26T06:24:38.934Z,0
2016-10-26T06:25:50.582Z,0
2016-10-26T06:27:01.767Z,0
2016-10-26T06:28:13.018Z,0
2016-10-26T06:29:24.115Z,0
2016-10-26T06:30:35.367Z,5
2016-10-26T06:31:45.458Z,5
2016-10-26T06:32:56.385Z,5
2016-10-26T06:34:09.156Z,5
2016-10-26T06:35:21.388Z,5
2016-10-26T06:36:34.080Z,5
2016-10-26T06:37:46.544Z,5
2016-10-26T06:38:58.886Z,10
2016-10-26T06:40:11.445Z,10
2016-10-26T06:41:23.434Z,10
2016-10-26T06:42:35.089Z,15
2016-10-26T06:43:46.206Z,15
2016-10-26T06:44:57.574Z,15
2016-10-26T06:46:10.289Z,15
2016-10-26T06:47:23.221Z,20
2016-10-26T06:48:35.310Z,20
2016-10-26T06:49:47.941Z,20
2016-10-26T06:51:01.120Z,25
2016-10-26T06:52:12.888Z,25
2016-10-26T06:53:23.266Z,25
2016-10-26T06:54:34.987Z,30
2016-10-26T06:55:45.189Z,30
2016-10-26T06:56:57.517Z,30
2016-10-26T06:58:09.452Z,30
2016-10-26T06:59:20.920Z,30
2016-10-26T07:00:31.655Z,30
2016-10-26T07:01:44.240Z,30
2016-10-26T07:02:56.892Z,30
2016-10-26T07:04:08.156Z,30
2016-10-26T07:05:20.759Z,30
2016-10-26T07:06:32.138Z,30
2016-10-26T07:07:44.762Z,30
2016-10-26T07:08:56.449Z,35
2016-10-26T07:10:07.550Z,35
2016-10-26T07:11:18.561Z,35
2016-10-26T07:12:33.511Z,40
2016-10-26T07:13:44.861Z,40
2016-10-26T07:14:57.155Z,40
2016-10-26T07:16:09.640Z,40
2016-10-26T07:17:21.905Z,40
2016-10-26T07:18:33.689Z,45
2016-10-26T07:19:45.317Z,45
2016-10-26T07:20:55.843Z,45
2016-10-26T07:22:07.025Z,45
2016-10-26T07:23:18.983Z,45
2016-10-26T07:24:30.110Z,45
2016-10-26T07:25:41.493Z,50
2016-10-26T07:26:52.837Z,50
2016-10-26T07:28:05.010Z,50
2016-10-26T07:29:15.749Z,45
2016-10-26T07:30:27.475Z,45
2016-10-26T07:31:39.905Z,45
2016-10-26T07:32:52.080Z,50
2016-10-26T07:34:03.968Z,50
2016-10-26T07:35:16.125Z,50
2016-10-26T07:36:27.874Z,50
2016-10-26T07:37:40.061Z,55
2016-10-26T07:38:52.222Z,55
2016-10-26T07:40:02.523Z,55
2016-10-26T07:41:14.738Z,60
2016-10-26T07:42:26.969Z,60
2016-10-26T07:43:39.498Z,65
2016-10-26T07:44:51.317Z,65
2016-10-26T07:46:03.496Z,70
2016-10-26T07:47:16.119Z,70
2016-10-26T07:48:28.054Z,70
2016-10-26T07:49:41.236Z,70
2016-10-26T07:50:53.758Z,70
2016-10-26T07:52:06.128Z,70
2016-10-26T07:53:18.083Z,70
2016-10-26T07:54:30.642Z,75
2016-10-26T07:55:42.597Z,75
2016-10-26T07:56:54.905Z,75
2016-10-26T07:58:06.651Z,75
2016-10-26T07:59:18.739Z,80
2016-10-26T08:00:30.973Z,80
2016-10-26T08:01:41.851Z,85
2016-10-26T08:02:52.654Z,85
2016-10-26T08:04:04.797Z,90
2016-10-26T08:05:17.457Z,95
2016-10-26T08:06:29.554Z,95
2016-10-26T08:07:40.688Z,95
2016-10-26T08:08:53.133Z,100
2016-10-26T08:10:04.979Z,105
2016-10-26T08:11:17.181Z,115
2016-10-26T08:12:29.897Z,120
2016-10-26T08:13:42.557Z,125
2016-10-26T08:14:54.573Z,135
2016-10-26T08:16:05.137Z,135
2016-10-26T08:17:16.838Z,145
2016-10-26T08:18:29.313Z,150
2016-10-26T08:19:40.733Z,160
2016-10-26T08:20:51.863Z,170
2016-10-26T08:22:02.312Z,175
2016-10-26T08:23:14.020Z,175
2016-10-26T08:24:26.662Z,175
2016-10-26T08:25:38.844Z,170
2016-10-26T08:26:50.175Z,165
2016-10-26T08:28:01.396Z,160
2016-10-26T08:29:12.751Z,160
2016-10-26T08:30:25.124Z,150
2016-10-26T08:31:37.793Z,145
2016-10-26T08:32:49.876Z,140
2016-10-26T08:34:01.021Z,145
2016-10-26T08:35:13.676Z,155
2016-10-26T08:36:25.889Z,165
2016-10-26T08:37:36.537Z,170
2016-10-26T08:38:48.018Z,180
2016-10-26T08:39:59.694Z,185
2016-10-26T08:41:11.787Z,190
2016-10-26T08:42:23.795Z,190
2016-10-26T08:43:34.497Z,185
2016-10-26T08:44:45.936Z,185
2016-10-26T08:45:57.360Z,195
2016-10-26T08:47:09.853Z,200
2016-10-26T08:48:21.606Z,210
2016-10-26T08:49:32.357Z,210
2016-10-26T08:50:44.402Z,220
2016-10-26T08:51:56.909Z,220
2016-10-26T08:53:08.629Z,215
2016-10-26T08:54:21.130Z,215
2016-10-26T08:55:32.915Z,215
2016-10-26T08:56:44.700Z,215
2016-10-26T08:57:55.482Z,210
2016-10-26T08:59:07.285Z,205
2016-10-26T09:00:19.363Z,205
2016-10-26T09:01:31.330Z,205
2016-10-26T09:02:44.217Z,200
2016-10-26T09:03:56.521Z,205
2016-10-26T09:05:07.584Z,210
2016-10-26T09:06:19.062Z,220
2016-10-26T09:07:30.133Z,240
2016-10-26T09:08:40.981Z,205
2016-10-26T09:09:52.340Z,195
2016-10-26T09:11:02.309Z,195
2016-10-26T09:12:14.542Z,185
2016-10-26T09:13:24.754Z,200
2016-10-26T09:14:35.849Z,195
2016-10-26T09:15:48.300Z,190
2016-10-26T09:16:59.450Z,185
2016-10-26T09:18:11.184Z,190
2016-10-26T09:19:22.690Z,195
2016-10-26T09:20:33.354Z,205
2016-10-26T09:21:45.399Z,185
2016-10-26T09:22:55.853Z,175
2016-10-26T09:24:08.150Z,175
2016-10-26T09:25:20.148Z,165
2016-10-26T09:26:30.894Z,155
2016-10-26T09:27:41.909Z,155
2016-10-26T09:28:53.605Z,160
2016-10-26T09:30:05.611Z,165
2016-10-26T09:31:17.109Z,165
2016-10-26T09:32:27.720Z,160
2016-10-26T09:33:40.262Z,165
2016-10-26T09:34:52.090Z,160
2016-10-26T09:36:03.966Z,165
2016-10-26T09:37:16.593Z,165
2016-10-26T09:38:28.425Z,185
2016-10-26T09:39:39.575Z,195
2016-10-26T09:40:50.453Z,200
2016-10-26T09:42:01.369Z,215
2016-10-26T09:43:12.097Z,215
2016-10-26T09:44:24.090Z,210
2016-10-26T09:45:35.798Z,200
2016-10-26T09:46:47.769Z,195
2016-10-26T09:47:58.144Z,190
2016-10-26T09:49:11.270Z,200
2016-10-26T09:50:23.714Z,210
2016-10-26T09:51:36.165Z,200
2016-10-26T09:52:47.721Z,195
2016-10-26T09:53:59.726Z,190
2016-10-26T09:55:12.887Z,190
2016-10-26T09:56:24.371Z,180
2016-10-26T09:57:34.151Z,190
2016-10-26T09:58:47.162Z,190
2016-10-26T09:59:58.920Z,190
2016-10-26T10:01:11.413Z,190
2016-10-26T10:02:22.923Z,185
2016-10-26T10:03:35.031Z,180
2016-10-26T10:04:47.675Z,175
2016-10-26T10:06:00.326Z,175
2016-10-26T10:07:10.720Z,185
2016-10-26T10:08:22.341Z,170
2016-10-26T10:09:33.813Z,180
2016-10-26T10:10:45.402Z,205
2016-10-26T10:11:57.222Z,185
2016-10-26T10:13:08.761Z,215
2016-10-26T10:14:21.443Z,220
2016-10-26T10:15:32.317Z,225
2016-10-26T10:16:45.335Z,245
2016-10-26T10:17:56.538Z,240
2016-10-26T10:19:08.716Z,235
2016-10-26T10:20:20.878Z,220
2016-10-26T10:21:32.364Z,210
2016-10-26T10:22:45.024Z,205
2016-10-26T10:23:57.089Z,205
2016-10-26T10:25:10.206Z,195
2016-10-26T10:26:20.616Z,190
2016-10-26T10:27:31.483Z,185
2016-10-26T10:28:42.514Z,180
2016-10-26T10:29:55.213Z,170
2016-10-26T10:31:07.523Z,160
2016-10-26T10:32:20.180Z,150
2016-10-26T10:33:32.492Z,145
2016-10-26T10:34:44.574Z,135
2016-10-26T10:35:56.036Z,135
2016-10-26T10:37:07.570Z,145
2016-10-26T10:38:19.131Z,170
2016-10-26T10:39:29.717Z,175
2016-10-26T10:40:41.932Z,180
2016-10-26T10:41:53.597Z,220
2016-10-26T10:43:04.132Z,235
2016-10-26T10:44:15.622Z,245
2016-10-26T10:45:27.275Z,245
2016-10-26T10:46:39.998Z,235
2016-10-26T10:47:51.956Z,230
2016-10-26T10:49:02.625Z,235
2016-10-26T10:50:13.222Z,230
2016-10-26T10:51:26.373Z,210
2016-10-26T10:52:37.446Z,215
2016-10-26T10:53:48.795Z,215
2016-10-26T10:55:00.893Z,215
2016-10-26T10:56:13.477Z,220
2016-10-26T10:57:25.654Z,240
2016-10-26T10:58:37.409Z,260
2016-10-26T10:59:49.370Z,260
2016-10-26T11:01:02.025Z,235
2016-10-26T11:02:13.991Z,230
2016-10-26T11:03:25.320Z,195
2016-10-26T11:04:37.280Z,175
2016-10-26T11:05:49.860Z,190
2016-10-26T11:07:01.141Z,190
2016-10-26T11:08:12.362Z,210
2016-10-26T11:09:24.532Z,200
2016-10-26T11:10:36.893Z,205
2016-10-26T11:11:48.525Z,205
2016-10-26T11:12:59.869Z,210
2016-10-26T11:14:11.831Z,200
2016-10-26T11:15:24.374Z,200
2016-10-26T11:16:35.655Z,200
2016-10-26T11:17:47.490Z,200
2016-10-26T11:18:59.652Z,200
2016-10-26T11:20:12.326Z,225
2016-10-26T11:21:23.487Z,240
2016-10-26T11:22:35.655Z,250
2016-10-26T11:23:47.762Z,255
2016-10-26T11:24:59.414Z,255
2016-10-26T11:26:10.720Z,255
2016-10-26T11:27:23.386Z,245
2016-10-26T11:28:34.804Z,230
2016-10-26T11:29:46.429Z,225
2016-10-26T11:30:57.992Z,230
2016-10-26T11:32:09.141Z,235
2016-10-26T11:33:20.085Z,235
2016-10-26T11:34:32.635Z,240
2016-10-26T11:35:43.810Z,240
2016-10-26T11:36:55.870Z,245
2016-10-26T11:38:07.270Z,255
2016-10-26T11:39:17.789Z,260
2016-10-26T11:40:30.787Z,265
2016-10-26T11:41:42.733Z,265
2016-10-26T11:42:54.933Z,260
2016-10-26T11:44:05.930Z,255
2016-10-26T11:45:17.276Z,255
2016-10-26T11:46:29.315Z,270
2016-10-26T11:47:41.399Z,270
2016-10-26T11:48:52.811Z,260
2016-10-26T11:50:04.879Z,255
2016-10-26T11:51:16.345Z,250
2016-10-26T11:52:28.482Z,235
2016-10-26T11:53:40.593Z,230
2016-10-26T11:54:51.345Z,225
2016-10-26T11:56:04.509Z,215
2016-10-26T11:57:15.990Z,220
2016-10-26T11:58:29.184Z,225
2016-10-26T11:59:40.900Z,225
2016-10-26T12:00:51.566Z,230
2016-10-26T12:02:03.578Z,240
2016-10-26T12:03:16.247Z,250
2016-10-26T12:04:28.112Z,250
2016-10-26T12:05:39.727Z,250
2016-10-26T12:06:50.876Z,245
2016-10-26T12:08:03.044Z,245
2016-10-26T12:09:15.038Z,240
2016-10-26T12:10:25.906Z,240
2016-10-26T12:11:38.079Z,235
2016-10-26T12:12:51.056Z,230
2016-10-26T12:14:03.638Z,225
2016-10-26T12:15:15.808Z,230
2016-10-26T12:16:27.024Z,230
2016-10-26T12:17:38.509Z,225
2016-10-26T12:18:50.133Z,225
2016-10-26T12:20:02.179Z,230
2016-10-26T12:21:14.809Z,230
2016-10-26T12:22:26.266Z,215
2016-10-26T12:23:38.218Z,210
2016-10-26T12:24:49.029Z,210
2016-10-26T12:26:01.134Z,205
2016-10-26T12:27:12.322Z,210
2016-10-26T12:28:24.979Z,210
2016-10-26T12:29:38.014Z,215
2016-10-26T12:30:49.698Z,220
2016-10-26T12:32:01.322Z,220
2016-10-26T12:33:12.185Z,225
2016-10-26T12:34:24.364Z,215
2016-10-26T12:35:37.020Z,205
2016-10-26T12:36:50.030Z,200
2016-10-26T12:38:02.221Z,200
2016-10-26T12:39:13.710Z,210
2016-10-26T12:40:26.367Z,215
2016-10-26T12:41:38.072Z,220
2016-10-26T12:42:48.958Z,220
2016-10-26T12:44:01.227Z,225
2016-10-26T12:45:12.032Z,225
2016-10-26T12:46:23.182Z,220
2016-10-26T12:47:34.480Z,225
2016-10-26T12:48:46.260Z,220
2016-10-26T12:49:58.943Z,215
2016-10-26T12:51:10.313Z,205
2016-10-26T12:52:22.482Z,200
2016-10-26T12:53:35.624Z,180
2016-10-26T12:54:47.316Z,175
2016-10-26T12:55:59.326Z,170
2016-10-26T12:57:10.686Z,175
2016-10-26T12:58:22.326Z,170
2016-10-26T12:59:33.892Z,170
2016-10-26T13:00:46.564Z,180
2016-10-26T13:01:58.066Z,195
2016-10-26T13:03:09.402Z,205
2016-10-26T13:04:21.609Z,200
2016-10-26T13:05:33.263Z,205
2016-10-26T13:06:44.770Z,205
2016-10-26T13:07:56.695Z,205
2016-10-26T13:09:08.128Z,205
2016-10-26T13:10:20.334Z,200
2016-10-26T13:11:31.218Z,190
2016-10-26T13:12:42.367Z,195
2016-10-26T13:13:55.063Z,195
2016-10-26T13:15:07.098Z,200
2016-10-26T13:16:18.874Z,195
2016-10-26T13:17:29.544Z,190
2016-10-26T13:18:42.219Z,180
2016-10-26T13:19:54.105Z,165
2016-10-26T13:21:04.689Z,150
2016-10-26T13:22:17.328Z,145
2016-10-26T13:23:29.034Z,145
2016-10-26T13:24:42.186Z,145
2016-10-26T13:25:53.457Z,145
2016-10-26T13:27:06.134Z,150
2016-10-26T13:28:17.443Z,155
2016-10-26T13:29:29.827Z,165
2016-10-26T13:30:43.010Z,170
2016-10-26T13:31:55.607Z,175
2016-10-26T13:33:07.463Z,175
2016-10-26T13:34:18.304Z,175
2016-10-26T13:35:30.179Z,185
2016-10-26T13:36:41.919Z,185
2016-10-26T13:37:53.877Z,180
2016-10-26T13:39:05.982Z,175
2016-10-26T13:40:17.110Z,165
2016-10-26T13:41:29.744Z,160
2016-10-26T13:42:40.809Z,160
2016-10-26T13:43:51.516Z,160
2016-10-26T13:45:02.792Z,160
2016-10-26T13:46:14.840Z,160
2016-10-26T13:47:26.484Z,160
2016-10-26T13:48:38.655Z,155
2016-10-26T13:49:50.686Z,155
2016-10-26T13:51:02.206Z,145
2016-10-26T13:52:14.379Z,145
2016-10-26T13:53:25.907Z,145
2016-10-26T13:54:36.624Z,150
2016-10-26T13:55:48.812Z,150
2016-10-26T13:57:01.089Z,145
2016-10-26T13:58:12.573Z,140
2016-10-26T13:59:25.684Z,125
2016-10-26T14:00:36.779Z,115
2016-10-26T14:01:47.926Z,105
2016-10-26T14:03:00.266Z,100
2016-10-26T14:04:10.788Z,100
2016-10-26T14:05:21.313Z,100
2016-10-26T14:06:32.585Z,105
2016-10-26T14:07:45.173Z,105
2016-10-26T14:08:57.283Z,110
2016-10-26T14:10:09.471Z,110
2016-10-26T14:11:20.842Z,115
2016-10-26T14:12:32.585Z,120
2016-10-26T14:13:44.279Z,130
2016-10-26T14:14:55.976Z,135
2016-10-26T14:16:07.245Z,140
2016-10-26T14:17:18.592Z,145
2016-10-26T14:18:30.477Z,145
2016-10-26T14:19:42.579Z,145
2016-10-26T14:20:53.848Z,145
2016-10-26T14:22:05.251Z,145
2016-10-26T14:23:17.898Z,150
2016-10-26T14:24:29.949Z,150
2016-10-26T14:25:42.134Z,150
2016-10-26T14:26:54.657Z,160
2016-10-26T14:28:06.143Z,150
2016-10-26T14:29:17.833Z,145
2016-10-26T14:30:29.501Z,140
2016-10-26T14:31:40.432Z,140
2016-10-26T14:32:53.095Z,140
2016-10-26T14:34:04.806Z,135
2016-10-26T14:35:17.502Z,135
2016-10-26T14:36:30.129Z,135
2016-10-26T14:37:41.418Z,135
2016-10-26T14:38:54.277Z,135
2016-10-26T14:40:05.767Z,140
2016-10-26T14:41:16.913Z,135
2016-10-26T14:42:28.071Z,130
2016-10-26T14:43:39.140Z,130
2016-10-26T14:44:50.385Z,130
2016-10-26T14:46:03.045Z,130
2016-10-26T14:47:13.287Z,130
2016-10-26T14:48:25.167Z,135
2016-10-26T14:49:36.919Z,135
2016-10-26T14:50:48.552Z,135
2016-10-26T14:51:59.088Z,135
2016-10-26T14:53:10.448Z,135
2016-10-26T14:54:21.424Z,135
2016-10-26T14:55:33.612Z,135
2016-10-26T14:56:46.160Z,135
2016-10-26T14:57:58.793Z,135
2016-10-26T14:59:10.630Z,135
2016-10-26T15:00:22.044Z,135
2016-10-26T15:01:33.396Z,135
2016-10-26T15:02:44.481Z,135
2016-10-26T15:03:55.613Z,135
2016-10-26T15:05:07.458Z,135
2016-10-26T15:06:18.317Z,135
2016-10-26T15:07:29.943Z,130
2016-10-26T15:08:41.898Z,130
2016-10-26T15:09:53.409Z,130
2016-10-26T15:11:04.943Z,125
2016-10-26T15:12:18.131Z,125
2016-10-26T15:13:30.687Z,130
2016-10-26T15:14:43.338Z,130
2016-10-26T15:15:55.835Z,135
2016-10-26T15:17:06.987Z,135
2016-10-26T15:18:19.648Z,135
2016-10-26T15:19:30.799Z,130
2016-10-26T15:20:42.685Z,125
2016-10-26T15:21:54.685Z,120
2016-10-26T15:23:07.282Z,115
2016-10-26T15:24:18.363Z,105
2016-10-26T15:25:28.666Z,100
2016-10-26T15:26:40.487Z,95
2016-10-26T15:27:52.535Z,90
2016-10-26T15:29:04.547Z,85
2016-10-26T15:30:17.200Z,85
2016-10-26T15:31:29.523Z,80
2016-10-26T15:32:41.138Z,80
2016-10-26T15:33:53.212Z,80
2016-10-26T15:35:03.800Z,80
2016-10-26T15:36:15.033Z,80
2016-10-26T15:37:27.145Z,80
2016-10-26T15:38:38.346Z,80
2016-10-26T15:39:50.115Z,75
2016-10-26T15:41:01.984Z,75
2016-10-26T15:42:13.417Z,75
2016-10-26T15:43:26.074Z,75
2016-10-26T15:44:37.939Z,75
2016-10-26T15:45:49.145Z,70
2016-10-26T15:47:01.459Z,70
2016-10-26T15:48:14.121Z,70
2016-10-26T15:49:26.235Z,65
2016-10-26T15:50:38.354Z,65
2016-10-26T15:51:50.679Z,60
2016-10-26T15:53:02.450Z,60
2016-10-26T15:54:14.073Z,60
2016-10-26T15:55:26.125Z,55
2016-10-26T15:56:38.288Z,55
2016-10-26T15:57:50.460Z,55
2016-10-26T15:59:02.206Z,55
2016-10-26T16:00:14.161Z,55
2016-10-26T16:01:25.188Z,55
2016-10-26T16:02:37.191Z,55
2016-10-26T16:03:49.196Z,50
2016-10-26T16:05:00.704Z,50
2016-10-26T16:06:13.283Z,50
2016-10-26T16:07:26.072Z,45
2016-10-26T16:08:37.397Z,45
2016-10-26T16:09:49.439Z,45
2016-10-26T16:11:01.595Z,45
2016-10-26T16:12:11.743Z,45
2016-10-26T16:13:22.788Z,40
2016-10-26T16:14:34.191Z,40
2016-10-26T16:15:44.962Z,40
2016-10-26T16:16:57.782Z,40
2016-10-26T16:18:09.446Z,40
2016-10-26T16:19:23.015Z,35
2016-10-26T16:20:35.656Z,35
2016-10-26T16:21:46.857Z,35
2016-10-26T16:22:57.455Z,35
2016-10-26T16:24:08.446Z,35
2016-10-26T16:25:20.502Z,30
2016-10-26T16:26:32.332Z,30
2016-10-26T16:27:45.022Z,30
2016-10-26T16:28:57.195Z,30
2016-10-26T16:30:08.989Z,25
2016-10-26T16:31:20.723Z,25
2016-10-26T16:32:32.948Z,25
2016-10-26T16:33:44.872Z,20
2016-10-26T16:34:56.085Z,20
2016-10-26T16:36:08.297Z,20
2016-10-26T16:37:19.793Z,15
2016-10-26T16:38:32.073Z,15
2016-10-26T16:39:43.703Z,15
2016-10-26T16:40:55.694Z,15
2016-10-26T16:42:08.432Z,15
2016-10-26T16:43:19.942Z,10
2016-10-26T16:44:32.020Z,10
2016-10-26T16:45:43.079Z,10
2016-10-26T16:46:54.873Z,10
2016-10-26T16:48:05.775Z,10
2016-10-26T16:49:17.603Z,5
2016-10-26T16:50:28.967Z,5
2016-10-26T16:51:41.739Z,5
2016-10-26T16:52:52.838Z,5
2016-10-26T16:54:05.026Z,5
2016-10-26T16:55:17.073Z,5
2016-10-26T16:56:28.062Z,5
2016-10-26T16:57:38.700Z,5
2016-10-26T16:58:49.803Z,0
2016-10-26T17:00:01.609Z,0
2016-10-26T17:01:12.958Z,0
2016-10-26T17:02:25.800Z,0